createdAt,value
2018-01-19T00:00:33.670Z,6.04
2018-01-19T00:01:33.914Z,6.02
2018-01-19T00:02:33.659Z,6.05
2018-01-19T00:03:33.655Z,6.01
2018-01-19T00:04:33.645Z,6.02
2018-01-19T00:05:33.639Z,6.05
2018-01-19T00:06:33.628Z,6.05
2018-01-19T00:07:33.867Z,5.99
2018-01-19T00:08:33.867Z,5.99
2018-01-19T00:09:33.857Z,6.09
2018-01-19T00:10:33.850Z,6.09
2018-01-19T00:11:33.606Z,6.08
2018-01-19T00:12:33.582Z,6.12
2018-01-19T00:13:33.570Z,6.12
2018-01-19T00:14:33.316Z,6.11
2018-01-19T00:15:33.317Z,6.14
2018-01-19T00:16:33.812Z,6.14
2018-01-19T00:17:33.799Z,6.19
2018-01-19T00:18:33.780Z,6.2
2018-01-19T00:19:33.774Z,6.44
2018-01-19T00:20:33.571Z,6.33
2018-01-19T00:21:33.808Z,6.44
2018-01-19T00:22:33.548Z,6.39
2018-01-19T00:23:33.760Z,6.42
2018-01-19T00:24:33.759Z,6.54
2018-01-19T00:25:33.476Z,6.54
2018-01-19T00:26:33.479Z,6.6
2018-01-19T00:27:35.062Z,6.63
2018-01-19T00:28:33.452Z,6.54
2018-01-19T00:29:33.700Z,6.59
2018-01-19T00:30:33.691Z,6.62
2018-01-19T00:31:33.433Z,6.63
2018-01-19T00:32:33.432Z,6.72
2018-01-19T00:33:33.434Z,6.64
2018-01-19T00:34:33.407Z,6.64
2018-01-19T00:35:33.404Z,6.67
2018-01-19T00:36:33.393Z,6.72
2018-01-19T00:37:33.393Z,6.77
2018-01-19T00:38:33.380Z,6.75
2018-01-19T00:39:33.382Z,6.75
2018-01-19T00:40:33.622Z,6.72
2018-01-19T00:41:33.610Z,6.75
2018-01-19T00:42:33.607Z,6.64
2018-01-19T00:43:33.597Z,6.85
2018-01-19T00:44:33.088Z,6.87
2018-01-19T00:45:33.326Z,6.82
2018-01-19T00:46:33.340Z,6.85
2018-01-19T00:47:33.562Z,6.78
2018-01-19T00:48:33.576Z,6.84
2018-01-19T00:49:33.340Z,6.87
2018-01-19T00:50:33.545Z,6.88
2018-01-19T00:51:33.534Z,6.87
2018-01-19T00:52:33.591Z,6.89
2018-01-19T00:53:33.341Z,6.85
2018-01-19T00:54:33.279Z,6.78
2018-01-19T00:55:33.515Z,6.82
2018-01-19T00:56:33.004Z,6.72
2018-01-19T00:57:34.300Z,6.89
2018-01-19T00:58:33.530Z,6.93
2018-01-19T00:59:33.485Z,6.84
2018-01-19T01:00:33.221Z,7
2018-01-19T01:01:33.258Z,6.99
2018-01-19T01:02:33.216Z,7.05
2018-01-19T01:03:33.452Z,7.17
2018-01-19T01:04:33.444Z,7.17
2018-01-19T01:05:33.448Z,7.15
2018-01-19T01:06:33.187Z,7.28
2018-01-19T01:07:33.428Z,7.31
2018-01-19T01:08:33.420Z,7.38
2018-01-19T01:09:33.171Z,7.36
2018-01-19T01:10:33.418Z,7.42
2018-01-19T01:11:33.147Z,7.42
2018-01-19T01:12:33.390Z,7.39
2018-01-19T01:13:32.883Z,7.4
2018-01-19T01:14:33.128Z,7.47
2018-01-19T01:15:33.371Z,7.4
2018-01-19T01:16:33.116Z,7.43
2018-01-19T01:17:33.358Z,7.4
2018-01-19T01:18:33.152Z,7.39
2018-01-19T01:19:33.367Z,7.4
2018-01-19T01:20:33.111Z,7.42
2018-01-19T01:21:32.828Z,7.47
2018-01-19T01:22:33.082Z,7.43
2018-01-19T01:23:33.319Z,7.38
2018-01-19T01:24:33.375Z,7.38
2018-01-19T01:25:33.053Z,7.38
2018-01-19T01:26:33.045Z,7.33
2018-01-19T01:27:33.044Z,7.38
2018-01-19T01:28:33.350Z,7.32
2018-01-19T01:29:33.038Z,7.32
2018-01-19T01:30:33.020Z,7.28
2018-01-19T01:31:33.276Z,7.29
2018-01-19T01:32:33.259Z,7.29
2018-01-19T01:33:33.257Z,7.25
2018-01-19T01:34:32.997Z,7.25
2018-01-19T01:35:33.002Z,7.29
2018-01-19T01:36:33.244Z,7.29
2018-01-19T01:37:33.240Z,7.21
2018-01-19T01:38:33.225Z,7.2
2018-01-19T01:39:32.964Z,7.21
2018-01-19T01:40:32.706Z,7.28
2018-01-19T01:41:33.198Z,7.29
2018-01-19T01:42:33.199Z,7.23
2018-01-19T01:43:33.192Z,7.21
2018-01-19T01:44:32.947Z,7.2
2018-01-19T01:45:32.671Z,7.25
2018-01-19T01:46:32.915Z,7.21
2018-01-19T01:47:33.168Z,7.14
2018-01-19T01:48:33.164Z,7.15
2018-01-19T01:49:32.895Z,7.13
2018-01-19T01:50:32.639Z,7.11
2018-01-19T01:51:32.629Z,7.11
2018-01-19T01:52:32.881Z,7.05
2018-01-19T01:53:32.618Z,7
2018-01-19T01:54:33.133Z,7.1
2018-01-19T01:55:33.116Z,7
2018-01-19T01:56:33.150Z,7.02
2018-01-19T01:57:33.094Z,6.99
2018-01-19T01:58:32.583Z,6.88
2018-01-19T01:59:33.086Z,6.89
2018-01-19T02:00:33.071Z,6.95
2018-01-19T02:01:32.823Z,6.89
2018-01-19T02:02:32.814Z,6.87
2018-01-19T02:03:32.801Z,6.79
2018-01-19T02:04:32.794Z,6.82
2018-01-19T02:05:32.800Z,6.88
2018-01-19T02:06:33.029Z,6.77
2018-01-19T02:07:33.022Z,6.77
2018-01-19T02:08:32.765Z,6.77
2018-01-19T02:09:32.764Z,6.77
2018-01-19T02:10:33.000Z,6.72
2018-01-19T02:11:33.003Z,6.72
2018-01-19T02:12:32.753Z,6.69
2018-01-19T02:13:32.976Z,6.74
2018-01-19T02:14:32.723Z,6.7
2018-01-19T02:15:32.713Z,6.7
2018-01-19T02:16:32.716Z,6.72
2018-01-19T02:17:32.699Z,6.62
2018-01-19T02:18:32.690Z,6.64
2018-01-19T02:19:32.937Z,6.62
2018-01-19T02:20:32.425Z,6.6
2018-01-19T02:21:32.670Z,6.48
2018-01-19T02:22:32.663Z,6.51
2018-01-19T02:23:32.912Z,6.44
2018-01-19T02:24:32.905Z,6.44
2018-01-19T02:25:32.641Z,6.38
2018-01-19T02:26:32.884Z,6.27
2018-01-19T02:27:32.887Z,6.27
2018-01-19T02:28:32.875Z,6.24
2018-01-19T02:29:32.608Z,6.16
2018-01-19T02:30:32.606Z,6.12
2018-01-19T02:31:32.592Z,6.09
2018-01-19T02:32:32.843Z,5.98
2018-01-19T02:33:32.584Z,6.11
2018-01-19T02:34:32.830Z,6.01
2018-01-19T02:35:32.572Z,5.98
2018-01-19T02:36:32.310Z,5.94
2018-01-19T02:37:32.814Z,5.89
2018-01-19T02:38:32.799Z,5.89
2018-01-19T02:39:32.531Z,5.94
2018-01-19T02:40:32.774Z,5.93
2018-01-19T02:41:32.521Z,5.83
2018-01-19T02:42:32.764Z,5.91
2018-01-19T02:43:32.762Z,5.8
2018-01-19T02:44:32.247Z,5.8
2018-01-19T02:45:32.488Z,5.86
2018-01-19T02:46:32.747Z,5.82
2018-01-19T02:47:32.723Z,5.8
2018-01-19T02:48:32.468Z,5.79
2018-01-19T02:49:32.457Z,5.8
2018-01-19T02:50:32.717Z,5.8
2018-01-19T02:51:32.693Z,5.76
2018-01-19T02:52:32.197Z,5.75
2018-01-19T02:53:32.425Z,5.82
2018-01-19T02:54:32.416Z,5.79
2018-01-19T02:55:32.670Z,5.73
2018-01-19T02:56:32.400Z,5.8
2018-01-19T02:57:32.643Z,5.84
2018-01-19T02:58:32.697Z,5.86
2018-01-19T02:59:32.625Z,5.86
2018-01-19T03:00:32.369Z,5.83
2018-01-19T03:01:32.612Z,5.73
2018-01-19T03:02:32.351Z,5.82
2018-01-19T03:03:32.602Z,5.86
2018-01-19T03:04:32.415Z,5.84
2018-01-19T03:05:32.605Z,5.83
2018-01-19T03:06:32.073Z,5.9
2018-01-19T03:07:32.320Z,5.84
2018-01-19T03:08:32.555Z,5.89
2018-01-19T03:09:32.301Z,5.87
2018-01-19T03:10:32.549Z,5.89
2018-01-19T03:11:32.534Z,5.89
2018-01-19T03:12:32.533Z,5.87
2018-01-19T03:13:32.526Z,5.84
2018-01-19T03:14:32.259Z,5.91
2018-01-19T03:15:32.508Z,5.91
2018-01-19T03:16:32.500Z,5.94
2018-01-19T03:17:32.245Z,5.94
2018-01-19T03:18:32.499Z,5.91
2018-01-19T03:19:32.252Z,5.98
2018-01-19T03:20:32.474Z,5.98
2018-01-19T03:21:32.467Z,5.9
2018-01-19T03:22:32.453Z,5.93
2018-01-19T03:23:32.193Z,5.93
2018-01-19T03:24:32.193Z,5.91
2018-01-19T03:25:32.189Z,5.93
2018-01-19T03:26:32.189Z,5.91
2018-01-19T03:27:32.181Z,5.89
2018-01-19T03:28:32.661Z,5.93
2018-01-19T03:29:32.156Z,5.93
2018-01-19T03:30:32.412Z,5.86
2018-01-19T03:31:32.409Z,5.9
2018-01-19T03:32:32.136Z,5.87
2018-01-19T03:33:32.925Z,5.94
2018-01-19T03:34:31.864Z,5.93
2018-01-19T03:35:32.361Z,5.97
2018-01-19T03:36:32.346Z,5.97
2018-01-19T03:37:32.347Z,5.97
2018-01-19T03:38:32.084Z,6.01
2018-01-19T03:39:31.829Z,5.91
2018-01-19T03:40:32.322Z,5.98
2018-01-19T03:41:32.074Z,5.93
2018-01-19T03:42:32.203Z,5.97
2018-01-19T03:43:32.045Z,5.97
2018-01-19T03:44:31.789Z,5.97
2018-01-19T03:45:32.037Z,5.99
2018-01-19T03:46:32.026Z,5.9
2018-01-19T03:47:32.279Z,5.84
2018-01-19T03:48:32.018Z,5.93
2018-01-19T03:49:32.260Z,5.89
2018-01-19T03:50:32.257Z,5.89
2018-01-19T03:51:32.249Z,5.93
2018-01-19T03:52:31.976Z,5.94
2018-01-19T03:53:32.239Z,5.87
2018-01-19T03:54:32.215Z,5.94
2018-01-19T03:55:32.209Z,5.84
2018-01-19T03:56:31.961Z,5.83
2018-01-19T03:57:31.947Z,5.84
2018-01-19T03:58:32.991Z,5.82
2018-01-19T03:59:32.176Z,5.84
2018-01-19T04:00:32.173Z,5.8
2018-01-19T04:01:31.670Z,5.76
2018-01-19T04:02:31.902Z,5.64
2018-01-19T04:03:32.157Z,5.69
2018-01-19T04:04:32.156Z,5.65
2018-01-19T04:05:31.898Z,5.72
2018-01-19T04:06:31.874Z,5.64
2018-01-19T04:07:32.122Z,5.57
2018-01-19T04:08:31.868Z,5.57
2018-01-19T04:09:32.104Z,5.56
2018-01-19T04:10:32.099Z,5.53
2018-01-19T04:11:31.843Z,5.56
2018-01-19T04:12:31.825Z,5.65
2018-01-19T04:13:31.820Z,5.57
2018-01-19T04:14:32.063Z,5.56
2018-01-19T04:15:31.802Z,5.62
2018-01-19T04:16:31.795Z,5.59
2018-01-19T04:17:32.036Z,5.59
2018-01-19T04:18:31.780Z,5.56
2018-01-19T04:19:32.034Z,5.5
2018-01-19T04:20:31.763Z,5.5
2018-01-19T04:21:32.004Z,5.43
2018-01-19T04:22:32.007Z,5.46
2018-01-19T04:23:31.817Z,5.43
2018-01-19T04:24:31.740Z,5.51
2018-01-19T04:25:31.739Z,5.47
2018-01-19T04:26:31.962Z,5.43
2018-01-19T04:27:31.714Z,5.48
2018-01-19T04:28:31.454Z,5.46
2018-01-19T04:29:31.949Z,5.5
2018-01-19T04:30:31.932Z,5.47
2018-01-19T04:31:31.922Z,5.47
2018-01-19T04:32:31.921Z,5.43
2018-01-19T04:33:31.908Z,5.38
2018-01-19T04:34:31.899Z,5.41
2018-01-19T04:35:31.891Z,5.41
2018-01-19T04:36:31.390Z,5.3
2018-01-19T04:37:31.624Z,5.38
2018-01-19T04:38:31.866Z,5.38
2018-01-19T04:39:31.857Z,5.25
2018-01-19T04:40:31.598Z,5.3
2018-01-19T04:41:31.350Z,5.23
2018-01-19T04:42:31.332Z,5.26
2018-01-19T04:43:31.327Z,5.35
2018-01-19T04:44:31.312Z,5.35
2018-01-19T04:45:31.306Z,5.29
2018-01-19T04:46:31.800Z,5.29
2018-01-19T04:47:31.792Z,5.25
2018-01-19T04:48:31.538Z,5.29
2018-01-19T04:49:31.776Z,5.26
2018-01-19T04:50:31.785Z,5.25
2018-01-19T04:51:31.520Z,5.28
2018-01-19T04:52:31.501Z,5.3
2018-01-19T04:53:31.486Z,5.25
2018-01-19T04:54:31.729Z,5.15
2018-01-19T04:55:31.723Z,5.2
2018-01-19T04:56:31.213Z,5.12
2018-01-19T04:57:31.469Z,5.1
2018-01-19T04:58:31.440Z,5.17
2018-01-19T04:59:31.943Z,5.1
2018-01-19T05:00:31.680Z,5.14
2018-01-19T05:01:31.673Z,5.11
2018-01-19T05:02:31.667Z,5.11
2018-01-19T05:03:31.407Z,5.02
2018-01-19T05:04:31.398Z,5.12
2018-01-19T05:05:31.638Z,5.08
2018-01-19T05:06:31.394Z,5.12
2018-01-19T05:07:31.653Z,5.14
2018-01-19T05:08:31.617Z,5.1
2018-01-19T05:09:31.408Z,5.15
2018-01-19T05:10:31.341Z,5.02
2018-01-19T05:11:31.084Z,5.12
2018-01-19T05:12:31.333Z,5.08
2018-01-19T05:13:31.577Z,5.15
2018-01-19T05:14:31.306Z,5.17
2018-01-19T05:15:31.555Z,5.14
2018-01-19T05:16:31.566Z,5.14
2018-01-19T05:17:31.534Z,5.18
2018-01-19T05:18:31.529Z,5.1
2018-01-19T05:19:31.517Z,5.08
2018-01-19T05:20:31.005Z,5.17
2018-01-19T05:21:31.506Z,5.11
2018-01-19T05:22:31.245Z,5.1
2018-01-19T05:23:31.296Z,5.15
2018-01-19T05:24:31.218Z,5.1
2018-01-19T05:25:32.432Z,5.14
2018-01-19T05:26:31.211Z,5.04
2018-01-19T05:27:31.445Z,5.1
2018-01-19T05:28:31.440Z,5.08
2018-01-19T05:29:31.183Z,5.05
2018-01-19T05:30:31.419Z,5.08
2018-01-19T05:31:30.907Z,5.08
2018-01-19T05:32:31.151Z,5.08
2018-01-19T05:33:31.397Z,5.05
2018-01-19T05:34:31.381Z,5.02
2018-01-19T05:35:31.158Z,4.96
2018-01-19T05:36:31.366Z,5
2018-01-19T05:37:31.360Z,4.97
2018-01-19T05:38:31.353Z,5.04
2018-01-19T05:39:31.342Z,4.97
2018-01-19T05:40:31.340Z,4.92
2018-01-19T05:41:31.085Z,4.94
2018-01-19T05:42:31.317Z,4.89
2018-01-19T05:43:31.054Z,4.93
2018-01-19T05:44:31.363Z,4.97
2018-01-19T05:45:31.040Z,4.94
2018-01-19T05:46:31.036Z,4.99
2018-01-19T05:47:31.047Z,4.99
2018-01-19T05:48:31.263Z,4.94
2018-01-19T05:49:31.000Z,4.89
2018-01-19T05:50:31.265Z,4.97
2018-01-19T05:51:31.241Z,5
2018-01-19T05:52:30.975Z,4.97
2018-01-19T05:53:30.975Z,4.92
2018-01-19T05:54:30.971Z,4.9
2018-01-19T05:55:31.202Z,4.93
2018-01-19T05:56:31.196Z,4.94
2018-01-19T05:57:31.200Z,4.8
2018-01-19T05:58:30.922Z,4.9
2018-01-19T05:59:30.919Z,4.84
2018-01-19T06:00:31.158Z,4.9
2018-01-19T06:01:30.926Z,4.89
2018-01-19T06:02:31.143Z,4.97
2018-01-19T06:03:31.147Z,4.94
2018-01-19T06:04:30.634Z,4.87
2018-01-19T06:05:30.937Z,4.89
2018-01-19T06:06:30.851Z,4.9
2018-01-19T06:07:31.109Z,4.94
2018-01-19T06:08:30.853Z,4.86
2018-01-19T06:09:30.831Z,4.8
2018-01-19T06:10:30.578Z,4.82
2018-01-19T06:11:31.066Z,4.74
2018-01-19T06:12:30.803Z,4.86
2018-01-19T06:13:30.802Z,4.84
2018-01-19T06:14:30.800Z,4.78
2018-01-19T06:15:31.038Z,4.86
2018-01-19T06:16:31.024Z,4.8
2018-01-19T06:17:30.762Z,4.87
2018-01-19T06:18:30.767Z,4.84
2018-01-19T06:19:30.506Z,4.94
2018-01-19T06:20:30.745Z,4.87
2018-01-19T06:21:30.984Z,4.93
2018-01-19T06:22:30.980Z,4.89
2018-01-19T06:23:30.996Z,4.99
2018-01-19T06:24:30.960Z,5.02
2018-01-19T06:25:30.459Z,5.07
2018-01-19T06:26:30.690Z,5.05
2018-01-19T06:27:30.420Z,5.08
2018-01-19T06:28:30.669Z,5.07
2018-01-19T06:29:30.655Z,5.11
2018-01-19T06:30:31.947Z,5.08
2018-01-19T06:31:30.893Z,5.04
2018-01-19T06:32:30.895Z,5.05
2018-01-19T06:33:30.622Z,5.08
2018-01-19T06:34:30.870Z,5.04
2018-01-19T06:35:30.660Z,5.02
2018-01-19T06:36:30.848Z,5.07
2018-01-19T06:37:30.837Z,4.97
2018-01-19T06:38:30.833Z,5
2018-01-19T06:39:30.574Z,4.87
2018-01-19T06:40:30.559Z,4.94
2018-01-19T06:41:30.554Z,4.8
2018-01-19T06:42:30.543Z,4.82
2018-01-19T06:43:30.529Z,4.94
2018-01-19T06:44:30.529Z,4.9
2018-01-19T06:45:30.507Z,4.8
2018-01-19T06:46:30.762Z,4.87
2018-01-19T06:47:30.756Z,4.82
2018-01-19T06:48:30.488Z,4.8
2018-01-19T06:49:30.474Z,4.84
2018-01-19T06:50:30.721Z,4.75
2018-01-19T06:51:30.217Z,4.73
2018-01-19T06:52:30.199Z,4.7
2018-01-19T06:53:30.441Z,4.63
2018-01-19T06:54:30.692Z,4.66
2018-01-19T06:55:30.680Z,4.52
2018-01-19T06:56:30.679Z,4.59
2018-01-19T06:57:30.404Z,4.52
2018-01-19T06:58:30.400Z,4.56
2018-01-19T06:59:30.388Z,4.59
2018-01-19T07:00:30.630Z,4.6
2018-01-19T07:01:30.648Z,4.58
2018-01-19T07:02:30.618Z,4.59
2018-01-19T07:03:30.110Z,4.56
2018-01-19T07:04:30.456Z,4.53
2018-01-19T07:05:30.357Z,4.52
2018-01-19T07:06:30.576Z,4.53
2018-01-19T07:07:30.062Z,4.5
2018-01-19T07:08:30.571Z,4.48
2018-01-19T07:09:30.559Z,4.52
2018-01-19T07:10:30.557Z,4.48
2018-01-19T07:11:30.534Z,4.48
2018-01-19T07:12:30.579Z,4.42
2018-01-19T07:13:30.517Z,4.34
2018-01-19T07:14:30.502Z,4.32
2018-01-19T07:15:30.308Z,4.37
2018-01-19T07:16:30.480Z,4.4
2018-01-19T07:17:30.224Z,4.38
2018-01-19T07:18:29.967Z,4.4
2018-01-19T07:19:30.473Z,4.48
2018-01-19T07:20:30.448Z,4.44
2018-01-19T07:21:30.185Z,4.37
2018-01-19T07:22:30.434Z,4.4
2018-01-19T07:23:30.174Z,4.34
2018-01-19T07:24:30.455Z,4.34
2018-01-19T07:25:30.418Z,4.35
2018-01-19T07:26:30.408Z,4.35
2018-01-19T07:27:30.384Z,4.34
2018-01-19T07:28:30.388Z,4.44
2018-01-19T07:29:30.380Z,4.49
2018-01-19T07:30:30.360Z,4.44
2018-01-19T07:31:30.111Z,4.59
2018-01-19T07:32:30.110Z,4.6
2018-01-19T07:33:29.831Z,4.63
2018-01-19T07:34:30.083Z,4.66
2018-01-19T07:35:30.065Z,4.59
2018-01-19T07:36:30.055Z,4.74
2018-01-19T07:37:30.297Z,4.59
2018-01-19T07:38:30.032Z,4.71
2018-01-19T07:39:30.026Z,4.71
2018-01-19T07:40:29.764Z,4.73
2018-01-19T07:41:30.006Z,4.73
2018-01-19T07:42:30.250Z,4.71
2018-01-19T07:43:29.995Z,4.7
2018-01-19T07:44:30.237Z,4.74
2018-01-19T07:45:30.231Z,4.73
2018-01-19T07:46:29.718Z,4.77
2018-01-19T07:47:29.953Z,4.82
2018-01-19T07:48:29.698Z,4.9
2018-01-19T07:49:29.942Z,4.96
2018-01-19T07:50:29.928Z,4.94
2018-01-19T07:51:29.672Z,5.02
2018-01-19T07:52:29.909Z,4.99
2018-01-19T07:53:29.716Z,5.11
2018-01-19T07:54:29.645Z,5.02
2018-01-19T07:55:29.634Z,5.15
2018-01-19T07:56:29.621Z,5.1
2018-01-19T07:57:29.868Z,5.05
2018-01-19T07:58:29.854Z,5.05
2018-01-19T07:59:29.853Z,5.1
2018-01-19T08:00:29.588Z,5.07
2018-01-19T08:01:29.579Z,5.02
2018-01-19T08:02:29.835Z,5.1
2018-01-19T08:03:30.070Z,5.08
2018-01-19T08:04:29.554Z,5.17
2018-01-19T08:05:29.795Z,5.1
2018-01-19T08:06:29.788Z,5.12
2018-01-19T08:07:29.779Z,5.11
2018-01-19T08:08:29.774Z,5.23
2018-01-19T08:09:30.019Z,5.33
2018-01-19T08:10:29.764Z,5.35
2018-01-19T08:11:29.749Z,5.32
2018-01-19T08:12:30.012Z,5.41
2018-01-19T08:13:29.985Z,5.36
2018-01-19T08:14:29.975Z,5.41
2018-01-19T08:15:29.514Z,5.38
2018-01-19T08:16:29.967Z,5.48
2018-01-19T08:17:29.712Z,5.51
2018-01-19T08:18:29.689Z,5.51
2018-01-19T08:19:29.934Z,5.61
2018-01-19T08:20:29.926Z,5.54
2018-01-19T08:21:29.670Z,5.57
2018-01-19T08:22:29.918Z,5.53
2018-01-19T08:23:29.654Z,5.54
2018-01-19T08:24:29.656Z,5.59
2018-01-19T08:25:29.889Z,5.62
2018-01-19T08:26:29.886Z,5.66
2018-01-19T08:27:29.870Z,5.59
2018-01-19T08:28:29.372Z,5.68
2018-01-19T08:29:29.854Z,5.64
2018-01-19T08:30:29.605Z,5.72
2018-01-19T08:31:31.365Z,5.69
2018-01-19T08:32:29.579Z,5.66
2018-01-19T08:33:29.578Z,5.64
2018-01-19T08:34:29.832Z,5.65
2018-01-19T08:35:29.815Z,5.64
2018-01-19T08:37:29.549Z,5.61
2018-01-19T08:38:29.541Z,5.62
2018-01-19T08:39:29.277Z,5.68
2018-01-19T08:40:29.521Z,5.66
2018-01-19T08:41:29.516Z,5.68
2018-01-19T08:42:29.255Z,5.71
2018-01-19T08:43:29.514Z,5.82
2018-01-19T08:44:29.758Z,5.82
2018-01-19T08:45:29.743Z,5.97
2018-01-19T08:46:29.734Z,5.93
2018-01-19T08:47:29.473Z,5.94
2018-01-19T08:48:29.461Z,6.04
2018-01-19T08:49:29.459Z,6.12
2018-01-19T08:50:29.447Z,6.14
2018-01-19T08:51:29.445Z,6.3
2018-01-19T08:52:29.448Z,6.22
2018-01-19T08:53:29.694Z,6.17
2018-01-19T08:54:29.465Z,6.2
2018-01-19T08:55:29.664Z,6.22
2018-01-19T08:56:29.403Z,6.12
2018-01-19T08:57:29.394Z,6.26
2018-01-19T08:58:29.637Z,6.11
2018-01-19T08:59:29.640Z,6.14
2018-01-19T09:00:29.387Z,6.14
2018-01-19T09:01:30.427Z,6.14
2018-01-19T09:02:29.357Z,6.24
2018-01-19T09:03:29.371Z,6.24
2018-01-19T09:04:29.346Z,6.22
2018-01-19T09:05:29.340Z,6.27
2018-01-19T09:06:29.339Z,6.26
2018-01-19T09:07:29.577Z,6.28
2018-01-19T09:08:29.318Z,6.27
2018-01-19T09:09:29.315Z,6.35
2018-01-19T09:10:29.313Z,6.41
2018-01-19T09:11:29.309Z,6.42
2018-01-19T09:12:29.297Z,6.33
2018-01-19T09:13:29.041Z,6.48
2018-01-19T09:14:29.522Z,6.49
2018-01-19T09:15:29.284Z,6.56
2018-01-19T09:16:29.570Z,6.46
2018-01-19T09:17:29.257Z,6.46
2018-01-19T09:18:29.254Z,6.6
2018-01-19T09:19:28.987Z,6.56
2018-01-19T09:20:29.488Z,6.7
2018-01-19T09:21:29.479Z,6.69
2018-01-19T09:22:29.470Z,6.66
2018-01-19T09:23:28.972Z,6.62
2018-01-19T09:24:29.226Z,6.48
2018-01-19T09:25:29.198Z,6.54
2018-01-19T09:26:29.451Z,6.6
2018-01-19T09:27:29.439Z,6.52
2018-01-19T09:28:29.426Z,6.46
2018-01-19T09:29:29.426Z,6.46
2018-01-19T09:30:29.415Z,6.46
2018-01-19T09:31:29.412Z,6.45
2018-01-19T09:32:29.407Z,6.41
2018-01-19T09:33:29.143Z,6.41
2018-01-19T09:34:29.134Z,6.38
2018-01-19T09:35:29.384Z,6.44
2018-01-19T09:36:29.130Z,6.41
2018-01-19T09:37:29.369Z,6.3
2018-01-19T09:38:28.859Z,6.26
2018-01-19T09:39:29.103Z,6.28
2018-01-19T09:40:29.092Z,6.26
2018-01-19T09:41:29.352Z,6.24
2018-01-19T09:42:29.081Z,6.28
2018-01-19T09:43:29.079Z,6.24
2018-01-19T09:44:29.126Z,6.24
2018-01-19T09:45:29.063Z,6.2
2018-01-19T09:46:29.052Z,6.41
2018-01-19T09:47:29.312Z,6.33
2018-01-19T09:48:29.056Z,6.36
2018-01-19T09:49:28.780Z,6.36
2018-01-19T09:50:29.307Z,6.39
2018-01-19T09:51:29.277Z,6.42
2018-01-19T09:52:29.014Z,6.35
2018-01-19T09:53:29.253Z,6.39
2018-01-19T09:54:29.254Z,6.42
2018-01-19T09:55:29.241Z,6.42
2018-01-19T09:56:29.239Z,6.44
2018-01-19T09:57:28.985Z,6.49
2018-01-19T09:58:29.217Z,6.45
2018-01-19T09:59:28.981Z,6.52
2018-01-19T10:00:29.209Z,6.54
2018-01-19T10:01:28.946Z,6.57
2018-01-19T10:02:29.198Z,6.66
2018-01-19T10:03:29.189Z,6.66
2018-01-19T10:04:29.178Z,6.75
2018-01-19T10:05:29.169Z,6.74
2018-01-19T10:06:28.678Z,6.72
2018-01-19T10:07:29.161Z,6.74
2018-01-19T10:08:28.917Z,6.87
2018-01-19T10:09:28.896Z,6.77
2018-01-19T10:10:28.896Z,6.77
2018-01-19T10:11:29.139Z,6.85
2018-01-19T10:12:28.884Z,6.87
2018-01-19T10:13:28.618Z,7.05
2018-01-19T10:14:29.122Z,7.03
2018-01-19T10:15:28.849Z,6.97
2018-01-19T10:16:29.148Z,6.87
2018-01-19T10:17:29.101Z,6.93
2018-01-19T10:18:29.085Z,6.87
2018-01-19T10:19:28.847Z,6.99
2018-01-19T10:20:29.085Z,6.99
2018-01-19T10:21:28.816Z,7
2018-01-19T10:22:29.067Z,7.03
2018-01-19T10:52:53.232Z,6.97
2018-01-19T10:53:52.963Z,6.97
2018-01-19T10:54:52.961Z,6.99
2018-01-19T10:55:53.198Z,6.99
2018-01-19T10:56:52.684Z,7
2018-01-19T10:57:52.681Z,7.06
2018-01-19T10:58:53.056Z,7.11
2018-01-19T10:59:53.198Z,7.14
2018-01-19T11:00:53.142Z,7.17
2018-01-19T11:01:52.885Z,7.29
2018-01-19T11:02:53.121Z,7.29
2018-01-19T11:03:52.878Z,7.32
2018-01-19T11:04:52.865Z,7.33
2018-01-19T11:05:52.859Z,7.35
2018-01-19T11:06:53.094Z,7.36
2018-01-19T11:07:53.633Z,7.42
2018-01-19T11:08:52.827Z,7.57
2018-01-19T11:09:52.836Z,7.56
2018-01-19T11:10:53.064Z,7.73
2018-01-19T11:11:52.829Z,7.72
2018-01-19T11:12:53.071Z,7.73
2018-01-19T11:13:52.807Z,7.7
2018-01-19T11:14:52.810Z,7.69
2018-01-19T11:15:52.784Z,7.73
2018-01-19T11:16:52.777Z,7.72
2018-01-19T11:17:52.772Z,7.67
2018-01-19T11:18:52.524Z,7.7
2018-01-19T11:19:52.776Z,7.58
2018-01-19T11:20:52.757Z,7.54
2018-01-19T11:21:52.498Z,7.56
2018-01-19T11:22:52.740Z,7.66
2018-01-19T11:23:52.988Z,7.67
2018-01-19T11:24:52.737Z,7.72
2018-01-19T11:25:52.973Z,7.79
2018-01-19T11:26:52.975Z,7.85
2018-01-19T11:27:52.733Z,7.8
2018-01-19T11:28:52.718Z,7.94
2018-01-19T11:29:52.700Z,7.98
2018-01-19T11:30:52.699Z,8.12
2018-01-19T11:31:52.949Z,8.16
2018-01-19T11:32:52.684Z,8.18
2018-01-19T11:33:52.931Z,8.34
2018-01-19T11:34:52.944Z,8.42
2018-01-19T11:35:52.930Z,8.3
2018-01-19T11:36:52.662Z,8.24
2018-01-19T11:37:52.663Z,8.28
2018-01-19T11:38:52.913Z,8.27
2018-01-19T11:39:52.654Z,8.15
2018-01-19T11:40:52.902Z,8.23
2018-01-19T11:41:52.643Z,8.16
2018-01-19T11:42:52.382Z,8.16
2018-01-19T11:43:52.380Z,8.15
2018-01-19T11:44:52.875Z,8.19
2018-01-19T11:45:52.633Z,8.09
2018-01-19T11:46:52.874Z,8.05
2018-01-19T11:47:52.876Z,8.12
2018-01-19T11:48:52.873Z,8
2018-01-19T11:49:52.866Z,8.06
2018-01-19T11:50:52.871Z,8.03
2018-01-19T11:51:52.598Z,8.06
2018-01-19T11:52:52.863Z,7.93
2018-01-19T11:53:52.631Z,7.95
2018-01-19T11:54:52.328Z,7.95
2018-01-19T11:55:52.631Z,7.94
2018-01-19T11:56:52.575Z,7.94
2018-01-19T11:57:52.640Z,7.97
2018-01-19T11:58:52.575Z,7.9
2018-01-19T11:59:52.297Z,8
2018-01-19T12:00:52.803Z,7.88
2018-01-19T12:01:52.549Z,7.9
2018-01-19T12:02:52.804Z,7.83
2018-01-19T12:03:52.529Z,7.9
2018-01-19T12:04:52.548Z,7.95
2018-01-19T12:05:52.835Z,7.85
2018-01-19T12:06:52.261Z,7.87
2018-01-19T12:07:52.758Z,7.85
2018-01-19T12:08:52.512Z,7.72
2018-01-19T12:09:52.747Z,7.75
2018-01-19T12:10:52.502Z,7.76
2018-01-19T12:11:52.483Z,7.87
2018-01-19T12:12:52.486Z,7.85
2018-01-19T12:13:52.729Z,7.85
2018-01-19T12:14:52.218Z,7.88
2018-01-19T12:15:52.468Z,7.87
2018-01-19T12:16:52.456Z,7.85
2018-01-19T12:17:52.465Z,7.76
2018-01-19T12:18:52.455Z,7.72
2018-01-19T12:19:52.692Z,7.69
2018-01-19T12:20:52.442Z,7.63
2018-01-19T12:21:52.432Z,7.63
2018-01-19T12:22:52.422Z,7.6
2018-01-19T12:23:52.671Z,7.73
2018-01-19T12:24:52.412Z,7.67
2018-01-19T12:25:52.159Z,7.76
2018-01-19T12:26:52.449Z,7.83
2018-01-19T12:27:52.646Z,7.79
2018-01-19T12:28:52.392Z,7.73
2018-01-19T12:29:52.642Z,7.8
2018-01-19T12:30:52.130Z,7.9
2018-01-19T12:31:52.627Z,7.8
2018-01-19T12:32:52.370Z,7.67
2018-01-19T12:33:52.369Z,7.7
2018-01-19T12:34:52.616Z,7.7
2018-01-19T12:35:52.353Z,7.72
2018-01-19T12:36:52.349Z,7.85
2018-01-19T12:37:53.298Z,7.88
2018-01-19T12:38:52.601Z,7.91
2018-01-19T12:39:52.079Z,7.88
2018-01-19T12:40:52.333Z,7.94
2018-01-19T12:41:52.316Z,7.94
2018-01-19T12:42:52.567Z,7.97
2018-01-19T12:43:52.363Z,8.01
2018-01-19T12:44:52.052Z,8.15
2018-01-19T12:45:52.550Z,8.2
2018-01-19T12:46:52.292Z,8.18
2018-01-19T12:47:52.304Z,8.27
2018-01-19T12:48:52.039Z,8.2
2018-01-19T12:49:52.039Z,8.19
2018-01-19T12:50:52.039Z,8.16
2018-01-19T12:51:52.276Z,8.19
2018-01-19T12:52:52.009Z,8.06
2018-01-19T12:53:52.008Z,8.2
2018-01-19T12:54:52.008Z,8.05
2018-01-19T12:55:52.255Z,7.98
2018-01-19T12:56:52.249Z,8.01
2018-01-19T12:57:51.991Z,8.05
2018-01-19T12:58:52.234Z,7.95
2018-01-19T12:59:52.237Z,7.93
2018-01-19T13:00:52.487Z,7.91
2018-01-19T13:01:52.266Z,7.88
2018-01-19T13:02:52.211Z,7.88
2018-01-19T13:03:52.211Z,7.87
2018-01-19T13:04:52.202Z,7.94
2018-01-19T13:05:52.488Z,7.95
2018-01-19T13:06:52.202Z,7.87
2018-01-19T13:07:52.186Z,7.93
2018-01-19T13:08:51.948Z,7.95
2018-01-19T13:09:52.186Z,7.95
2018-01-19T13:10:52.420Z,8.03
2018-01-19T13:11:52.185Z,8.1
2018-01-19T13:12:52.430Z,8.12
2018-01-19T13:13:52.418Z,8.26
2018-01-19T13:14:52.156Z,8.33
2018-01-19T13:15:52.163Z,8.31
2018-01-19T13:16:52.159Z,8.45
2018-01-19T13:17:52.389Z,8.42
2018-01-19T13:18:52.129Z,8.58
2018-01-19T13:19:52.385Z,8.58
2018-01-19T13:20:52.128Z,8.58
2018-01-19T13:21:52.129Z,8.53
2018-01-19T13:22:52.139Z,8.53
2018-01-19T13:23:52.598Z,8.41
2018-01-19T13:24:51.858Z,8.31
2018-01-19T13:25:52.348Z,8.28
2018-01-19T13:26:52.096Z,8.18
2018-01-19T13:27:51.838Z,8.08
2018-01-19T13:28:52.088Z,8.05
2018-01-19T13:29:51.826Z,8
2018-01-19T13:30:52.337Z,7.93
2018-01-19T13:31:52.360Z,7.9
2018-01-19T13:32:52.078Z,8.03
2018-01-19T13:33:52.333Z,7.91
2018-01-19T13:34:52.184Z,7.94
2018-01-19T13:35:52.123Z,7.95
2018-01-19T13:36:51.803Z,7.88
2018-01-19T13:37:52.039Z,7.94
2018-01-19T13:38:51.782Z,7.94
2018-01-19T13:39:52.071Z,8
2018-01-19T13:40:52.281Z,7.98
2018-01-19T13:41:52.283Z,7.97
2018-01-19T13:42:51.770Z,7.98
2018-01-19T13:43:51.794Z,8
2018-01-19T13:44:51.759Z,8.03
2018-01-19T13:45:51.748Z,8.12
2018-01-19T13:46:51.995Z,8.08
2018-01-19T13:47:52.239Z,8.16
2018-01-19T13:48:52.017Z,8.15
2018-01-19T13:49:52.234Z,8.18
2018-01-19T13:50:51.729Z,8.13
2018-01-19T13:51:51.722Z,8.16
2018-01-19T13:52:51.977Z,8.15